sensor_id;sensor_type;location;lat;lon;timestamp;temperature;humidity
19164;DHT22;9714;51.208;4.242;2022-09-09T00:00:20;16.50;99.90
19164;DHT22;9714;51.208;4.242;2022-09-09T00:02:55;16.60;99.90
19164;DHT22;9714;51.208;4.242;2022-09-09T00:05:31;16.60;99.90
19164;DHT22;9714;51.208;4.242;2022-09-09T00:08:02;16.40;99.90
19164;DHT22;9714;51.208;4.242;2022-09-09T00:10:34;16.50;99.90
19164;DHT22;9714;51.208;4.242;2022-09-09T00:13:12;16.40;99.90
19164;DHT22;9714;51.208;4.242;2022-09-09T00:15:46;16.40;99.90
19164;DHT22;9714;51.208;4.242;2022-09-09T00:18:22;16.20;99.90
19164;DHT22;9714;51.208;4.242;2022-09-09T00:20:57;16.30;99.90
19164;DHT22;9714;51.208;4.242;2022-09-09T00:23:25;16.30;99.90
19164;DHT22;9714;51.208;4.242;2022-09-09T00:26:03;16.10;99.90
19164;DHT22;9714;51.208;4.242;2022-09-09T00:28:35;16.10;99.90
19164;DHT22;9714;51.208;4.242;2022-09-09T00:31:11;16.20;99.90
19164;DHT22;9714;51.208;4.242;2022-09-09T00:33:46;16.30;99.90
19164;DHT22;9714;51.208;4.242;2022-09-09T00:36:23;16.30;99.90
19164;DHT22;9714;51.208;4.242;2022-09-09T00:38:53;16.40;99.90
19164;DHT22;9714;51.208;4.242;2022-09-09T00:41:58;16.30;99.90
19164;DHT22;9714;51.208;4.242;2022-09-09T00:44:31;16.50;99.90
19164;DHT22;9714;51.208;4.242;2022-09-09T00:47:12;16.40;99.90
19164;DHT22;9714;51.208;4.242;2022-09-09T00:49:54;16.30;99.90
19164;DHT22;9714;51.208;4.242;2022-09-09T00:52:32;16.30;99.90
19164;DHT22;9714;51.208;4.242;2022-09-09T00:55:07;16.50;99.90
19164;DHT22;9714;51.208;4.242;2022-09-09T00:57:36;16.50;99.90
19164;DHT22;9714;51.208;4.242;2022-09-09T01:00:19;16.50;99.90
19164;DHT22;9714;51.208;4.242;2022-09-09T01:02:53;16.60;99.90
19164;DHT22;9714;51.208;4.242;2022-09-09T01:05:29;16.50;99.90
19164;DHT22;9714;51.208;4.242;2022-09-09T01:08:01;16.40;99.90
19164;DHT22;9714;51.208;4.242;2022-09-09T01:10:36;16.50;99.90
19164;DHT22;9714;51.208;4.242;2022-09-09T01:13:25;16.50;99.90
19164;DHT22;9714;51.208;4.242;2022-09-09T01:15:53;16.50;99.90
19164;DHT22;9714;51.208;4.242;2022-09-09T01:18:23;16.40;99.90
19164;DHT22;9714;51.208;4.242;2022-09-09T01:21:00;16.20;99.90
19164;DHT22;9714;51.208;4.242;2022-09-09T01:23:49;16.10;99.90
19164;DHT22;9714;51.208;4.242;2022-09-09T01:26:27;16.10;99.90
19164;DHT22;9714;51.208;4.242;2022-09-09T01:28:54;16.20;99.90
19164;DHT22;9714;51.208;4.242;2022-09-09T01:31:26;16.10;99.90
19164;DHT22;9714;51.208;4.242;2022-09-09T01:33:54;15.90;99.90
19164;DHT22;9714;51.208;4.242;2022-09-09T01:36:27;15.80;99.90
19164;DHT22;9714;51.208;4.242;2022-09-09T01:38:56;15.80;99.90
19164;DHT22;9714;51.208;4.242;2022-09-09T01:41:23;15.80;99.90
19164;DHT22;9714;51.208;4.242;2022-09-09T01:43:53;15.70;99.90
19164;DHT22;9714;51.208;4.242;2022-09-09T01:46:22;15.70;99.90
19164;DHT22;9714;51.208;4.242;2022-09-09T01:48:50;15.60;99.90
19164;DHT22;9714;51.208;4.242;2022-09-09T01:51:17;15.70;99.90
19164;DHT22;9714;51.208;4.242;2022-09-09T01:53:45;15.80;99.90
19164;DHT22;9714;51.208;4.242;2022-09-09T01:56:22;16.00;99.90
19164;DHT22;9714;51.208;4.242;2022-09-09T01:59:01;16.10;99.90
19164;DHT22;9714;51.208;4.242;2022-09-09T02:01:42;16.00;99.90
19164;DHT22;9714;51.208;4.242;2022-09-09T02:04:22;16.00;99.90
19164;DHT22;9714;51.208;4.242;2022-09-09T02:06:56;16.10;99.90
19164;DHT22;9714;51.208;4.242;2022-09-09T02:09:24;16.10;99.90
19164;DHT22;9714;51.208;4.242;2022-09-09T02:11:57;16.00;99.90
19164;DHT22;9714;51.208;4.242;2022-09-09T02:14:31;16.10;99.90
19164;DHT22;9714;51.208;4.242;2022-09-09T02:17:08;16.00;99.90
19164;DHT22;9714;51.208;4.242;2022-09-09T02:19:42;15.90;99.90
19164;DHT22;9714;51.208;4.242;2022-09-09T02:22:12;15.80;99.90
19164;DHT22;9714;51.208;4.242;2022-09-09T02:24:40;16.00;99.90
19164;DHT22;9714;51.208;4.242;2022-09-09T02:27:08;16.10;99.90
19164;DHT22;9714;51.208;4.242;2022-09-09T02:29:39;16.10;99.90
19164;DHT22;9714;51.208;4.242;2022-09-09T02:32:11;16.30;99.90
19164;DHT22;9714;51.208;4.242;2022-09-09T02:34:43;16.40;99.90
19164;DHT22;9714;51.208;4.242;2022-09-09T02:37:13;16.30;99.90
19164;DHT22;9714;51.208;4.242;2022-09-09T02:39:42;16.10;99.90
19164;DHT22;9714;51.208;4.242;2022-09-09T02:42:09;16.10;99.90
19164;DHT22;9714;51.208;4.242;2022-09-09T02:44:38;16.10;99.90
19164;DHT22;9714;51.208;4.242;2022-09-09T02:47:14;16.00;99.90
19164;DHT22;9714;51.208;4.242;2022-09-09T02:49:51;16.10;99.90
19164;DHT22;9714;51.208;4.242;2022-09-09T02:52:28;16.10;99.90
19164;DHT22;9714;51.208;4.242;2022-09-09T02:55:02;16.20;99.90
19164;DHT22;9714;51.208;4.242;2022-09-09T02:57:31;16.40;99.90
19164;DHT22;9714;51.208;4.242;2022-09-09T03:00:01;16.40;99.90
19164;DHT22;9714;51.208;4.242;2022-09-09T03:02:31;16.40;99.90
19164;DHT22;9714;51.208;4.242;2022-09-09T03:04:59;16.50;99.90
19164;DHT22;9714;51.208;4.242;2022-09-09T03:07:26;16.60;99.90
19164;DHT22;9714;51.208;4.242;2022-09-09T03:09:53;16.70;99.90
19164;DHT22;9714;51.208;4.242;2022-09-09T03:12:20;16.80;99.90
19164;DHT22;9714;51.208;4.242;2022-09-09T03:14:47;16.70;99.90
19164;DHT22;9714;51.208;4.242;2022-09-09T03:17:15;16.70;99.90
19164;DHT22;9714;51.208;4.242;2022-09-09T03:19:42;16.60;99.90
19164;DHT22;9714;51.208;4.242;2022-09-09T03:22:10;16.80;99.90
19164;DHT22;9714;51.208;4.242;2022-09-09T03:24:37;16.80;99.90
19164;DHT22;9714;51.208;4.242;2022-09-09T03:27:04;16.70;99.90
19164;DHT22;9714;51.208;4.242;2022-09-09T03:29:31;16.50;99.90
19164;DHT22;9714;51.208;4.242;2022-09-09T03:31:58;16.50;99.90
19164;DHT22;9714;51.208;4.242;2022-09-09T03:34:27;16.50;99.90
19164;DHT22;9714;51.208;4.242;2022-09-09T03:36:54;16.50;99.90
19164;DHT22;9714;51.208;4.242;2022-09-09T03:39:21;16.50;99.90
19164;DHT22;9714;51.208;4.242;2022-09-09T03:41:48;16.60;99.90
19164;DHT22;9714;51.208;4.242;2022-09-09T03:44:15;16.60;99.90
19164;DHT22;9714;51.208;4.242;2022-09-09T03:46:42;16.60;99.90
19164;DHT22;9714;51.208;4.242;2022-09-09T03:49:09;16.70;99.90
19164;DHT22;9714;51.208;4.242;2022-09-09T03:51:38;16.70;99.90
19164;DHT22;9714;51.208;4.242;2022-09-09T03:54:06;16.70;99.90
19164;DHT22;9714;51.208;4.242;2022-09-09T03:56:36;16.70;99.90
19164;DHT22;9714;51.208;4.242;2022-09-09T03:59:03;16.60;99.90
19164;DHT22;9714;51.208;4.242;2022-09-09T04:01:30;16.50;99.90
19164;DHT22;9714;51.208;4.242;2022-09-09T04:03:57;16.50;99.90
19164;DHT22;9714;51.208;4.242;2022-09-09T04:06:24;16.50;99.90
19164;DHT22;9714;51.208;4.242;2022-09-09T04:08:53;16.50;99.90
19164;DHT22;9714;51.208;4.242;2022-09-09T04:11:21;16.30;99.90
19164;DHT22;9714;51.208;4.242;2022-09-09T04:13:48;16.20;99.90
19164;DHT22;9714;51.208;4.242;2022-09-09T04:16:15;16.40;99.90
19164;DHT22;9714;51.208;4.242;2022-09-09T04:18:42;16.40;99.90
19164;DHT22;9714;51.208;4.242;2022-09-09T04:21:10;16.40;99.90
19164;DHT22;9714;51.208;4.242;2022-09-09T04:23:38;16.40;99.90
19164;DHT22;9714;51.208;4.242;2022-09-09T04:26:07;16.30;99.90
19164;DHT22;9714;51.208;4.242;2022-09-09T04:28:36;16.20;99.90
19164;DHT22;9714;51.208;4.242;2022-09-09T04:31:15;16.30;99.90
19164;DHT22;9714;51.208;4.242;2022-09-09T04:33:43;16.20;99.90
19164;DHT22;9714;51.208;4.242;2022-09-09T04:36:10;16.10;99.90
19164;DHT22;9714;51.208;4.242;2022-09-09T04:38:40;16.10;99.90
19164;DHT22;9714;51.208;4.242;2022-09-09T04:41:08;16.10;99.90
19164;DHT22;9714;51.208;4.242;2022-09-09T04:43:36;16.10;99.90
19164;DHT22;9714;51.208;4.242;2022-09-09T04:46:04;16.30;99.90
19164;DHT22;9714;51.208;4.242;2022-09-09T04:48:32;16.40;99.90
19164;DHT22;9714;51.208;4.242;2022-09-09T04:51:00;16.50;99.90
19164;DHT22;9714;51.208;4.242;2022-09-09T04:53:27;16.50;99.90
19164;DHT22;9714;51.208;4.242;2022-09-09T04:56:02;16.30;99.90
19164;DHT22;9714;51.208;4.242;2022-09-09T04:58:31;16.40;99.90
19164;DHT22;9714;51.208;4.242;2022-09-09T05:01:06;16.40;99.90
19164;DHT22;9714;51.208;4.242;2022-09-09T05:03:34;16.40;99.90
19164;DHT22;9714;51.208;4.242;2022-09-09T05:06:05;16.40;99.90
19164;DHT22;9714;51.208;4.242;2022-09-09T05:08:34;16.50;99.90
19164;DHT22;9714;51.208;4.242;2022-09-09T05:11:01;16.40;99.90
19164;DHT22;9714;51.208;4.242;2022-09-09T05:13:28;16.40;99.90
19164;DHT22;9714;51.208;4.242;2022-09-09T05:15:58;16.30;99.90
19164;DHT22;9714;51.208;4.242;2022-09-09T05:18:25;16.20;99.90
19164;DHT22;9714;51.208;4.242;2022-09-09T05:20:52;16.30;99.90
19164;DHT22;9714;51.208;4.242;2022-09-09T05:23:19;16.30;99.90
19164;DHT22;9714;51.208;4.242;2022-09-09T05:25:55;16.40;99.90
19164;DHT22;9714;51.208;4.242;2022-09-09T05:28:23;16.50;99.90
19164;DHT22;9714;51.208;4.242;2022-09-09T05:31:00;16.50;99.90
19164;DHT22;9714;51.208;4.242;2022-09-09T05:33:29;16.70;99.90
19164;DHT22;9714;51.208;4.242;2022-09-09T05:35:58;16.70;99.90
19164;DHT22;9714;51.208;4.242;2022-09-09T05:38:25;16.60;99.90
19164;DHT22;9714;51.208;4.242;2022-09-09T05:40:53;16.70;99.90
19164;DHT22;9714;51.208;4.242;2022-09-09T05:43:20;16.70;99.90
19164;DHT22;9714;51.208;4.242;2022-09-09T05:45:47;16.80;99.90
19164;DHT22;9714;51.208;4.242;2022-09-09T05:48:15;16.80;99.90
19164;DHT22;9714;51.208;4.242;2022-09-09T05:50:43;17.00;99.90
19164;DHT22;9714;51.208;4.242;2022-09-09T05:53:19;17.00;99.90
19164;DHT22;9714;51.208;4.242;2022-09-09T05:55:46;16.90;99.90
19164;DHT22;9714;51.208;4.242;2022-09-09T05:58:13;16.90;99.90
19164;DHT22;9714;51.208;4.242;2022-09-09T06:00:43;16.90;99.90
19164;DHT22;9714;51.208;4.242;2022-09-09T06:03:10;16.80;99.90
19164;DHT22;9714;51.208;4.242;2022-09-09T06:05:39;16.80;99.90
19164;DHT22;9714;51.208;4.242;2022-09-09T06:08:06;16.80;99.90
19164;DHT22;9714;51.208;4.242;2022-09-09T06:10:33;16.80;99.90
19164;DHT22;9714;51.208;4.242;2022-09-09T06:13:00;16.80;99.90
19164;DHT22;9714;51.208;4.242;2022-09-09T06:15:27;17.00;99.90
19164;DHT22;9714;51.208;4.242;2022-09-09T06:17:56;17.00;99.90
19164;DHT22;9714;51.208;4.242;2022-09-09T06:20:23;17.00;99.90
19164;DHT22;9714;51.208;4.242;2022-09-09T06:22:52;16.80;99.90
19164;DHT22;9714;51.208;4.242;2022-09-09T06:25:18;16.90;99.90
19164;DHT22;9714;51.208;4.242;2022-09-09T06:27:48;16.90;99.90
19164;DHT22;9714;51.208;4.242;2022-09-09T06:30:16;17.00;99.90
19164;DHT22;9714;51.208;4.242;2022-09-09T06:32:44;17.10;99.90
19164;DHT22;9714;51.208;4.242;2022-09-09T06:35:10;17.10;99.90
19164;DHT22;9714;51.208;4.242;2022-09-09T06:37:39;17.10;99.90
19164;DHT22;9714;51.208;4.242;2022-09-09T06:40:08;17.20;99.90
19164;DHT22;9714;51.208;4.242;2022-09-09T06:42:35;17.40;99.90
19164;DHT22;9714;51.208;4.242;2022-09-09T06:45:03;17.70;99.90
19164;DHT22;9714;51.208;4.242;2022-09-09T06:47:30;17.80;99.90
19164;DHT22;9714;51.208;4.242;2022-09-09T06:49:59;17.60;99.90
19164;DHT22;9714;51.208;4.242;2022-09-09T06:52:26;17.70;99.90
19164;DHT22;9714;51.208;4.242;2022-09-09T06:54:53;17.70;99.90
19164;DHT22;9714;51.208;4.242;2022-09-09T06:57:21;17.60;99.90
19164;DHT22;9714;51.208;4.242;2022-09-09T06:59:49;17.60;99.90
19164;DHT22;9714;51.208;4.242;2022-09-09T07:02:16;18.00;99.90
19164;DHT22;9714;51.208;4.242;2022-09-09T07:04:43;18.30;99.90
19164;DHT22;9714;51.208;4.242;2022-09-09T07:07:10;18.60;99.90
19164;DHT22;9714;51.208;4.242;2022-09-09T07:09:39;18.40;99.90
19164;DHT22;9714;51.208;4.242;2022-09-09T07:12:06;18.30;99.90
19164;DHT22;9714;51.208;4.242;2022-09-09T07:14:34;17.90;99.90
19164;DHT22;9714;51.208;4.242;2022-09-09T07:17:03;17.90;99.90
19164;DHT22;9714;51.208;4.242;2022-09-09T07:19:30;17.70;99.90
19164;DHT22;9714;51.208;4.242;2022-09-09T07:21:57;17.80;99.90
19164;DHT22;9714;51.208;4.242;2022-09-09T07:24:24;17.90;99.90
19164;DHT22;9714;51.208;4.242;2022-09-09T07:26:51;17.70;99.90
19164;DHT22;9714;51.208;4.242;2022-09-09T07:29:19;17.60;99.90
19164;DHT22;9714;51.208;4.242;2022-09-09T07:31:47;17.90;99.90
19164;DHT22;9714;51.208;4.242;2022-09-09T07:34:14;18.20;99.90
19164;DHT22;9714;51.208;4.242;2022-09-09T07:36:41;18.20;99.90
19164;DHT22;9714;51.208;4.242;2022-09-09T07:39:10;18.30;99.90
19164;DHT22;9714;51.208;4.242;2022-09-09T07:41:40;18.60;99.90
19164;DHT22;9714;51.208;4.242;2022-09-09T07:44:09;19.10;99.90
19164;DHT22;9714;51.208;4.242;2022-09-09T07:46:37;19.60;99.90
19164;DHT22;9714;51.208;4.242;2022-09-09T07:49:06;19.90;99.90
19164;DHT22;9714;51.208;4.242;2022-09-09T07:51:35;19.30;99.90
19164;DHT22;9714;51.208;4.242;2022-09-09T07:54:04;19.40;99.90
19164;DHT22;9714;51.208;4.242;2022-09-09T07:56:32;19.30;99.90
19164;DHT22;9714;51.208;4.242;2022-09-09T07:59:00;19.00;99.90
19164;DHT22;9714;51.208;4.242;2022-09-09T08:01:33;18.70;99.90
19164;DHT22;9714;51.208;4.242;2022-09-09T08:04:05;18.70;99.90
19164;DHT22;9714;51.208;4.242;2022-09-09T08:06:35;18.80;99.90
19164;DHT22;9714;51.208;4.242;2022-09-09T08:09:03;18.70;99.90
19164;DHT22;9714;51.208;4.242;2022-09-09T08:11:30;18.70;99.90
19164;DHT22;9714;51.208;4.242;2022-09-09T08:13:58;19.00;99.90
19164;DHT22;9714;51.208;4.242;2022-09-09T08:16:28;19.30;99.90
19164;DHT22;9714;51.208;4.242;2022-09-09T08:18:57;18.80;99.90
19164;DHT22;9714;51.208;4.242;2022-09-09T08:21:27;19.20;99.90
19164;DHT22;9714;51.208;4.242;2022-09-09T08:23:57;19.00;99.90
19164;DHT22;9714;51.208;4.242;2022-09-09T08:26:27;19.30;99.90
19164;DHT22;9714;51.208;4.242;2022-09-09T08:28:58;19.50;99.90
19164;DHT22;9714;51.208;4.242;2022-09-09T08:31:27;20.00;99.90
19164;DHT22;9714;51.208;4.242;2022-09-09T08:33:56;20.00;99.90
19164;DHT22;9714;51.208;4.242;2022-09-09T08:36:26;20.10;99.90
19164;DHT22;9714;51.208;4.242;2022-09-09T08:38:57;19.80;99.90
19164;DHT22;9714;51.208;4.242;2022-09-09T08:41:45;19.60;99.90
19164;DHT22;9714;51.208;4.242;2022-09-09T08:44:23;19.20;99.90
19164;DHT22;9714;51.208;4.242;2022-09-09T08:46:57;19.00;99.90
19164;DHT22;9714;51.208;4.242;2022-09-09T08:49:44;18.90;99.90
19164;DHT22;9714;51.208;4.242;2022-09-09T08:52:17;19.10;99.90
19164;DHT22;9714;51.208;4.242;2022-09-09T08:54:48;18.80;99.90
19164;DHT22;9714;51.208;4.242;2022-09-09T08:57:20;18.70;99.90
19164;DHT22;9714;51.208;4.242;2022-09-09T08:59:49;18.80;99.90
19164;DHT22;9714;51.208;4.242;2022-09-09T09:02:20;18.80;99.90
19164;DHT22;9714;51.208;4.242;2022-09-09T09:05:03;18.70;99.90
19164;DHT22;9714;51.208;4.242;2022-09-09T09:07:42;18.80;99.90
19164;DHT22;9714;51.208;4.242;2022-09-09T09:10:24;18.70;99.90
19164;DHT22;9714;51.208;4.242;2022-09-09T09:12:56;18.80;99.90
19164;DHT22;9714;51.208;4.242;2022-09-09T09:15:26;18.80;99.90
19164;DHT22;9714;51.208;4.242;2022-09-09T09:17:58;18.80;99.90
19164;DHT22;9714;51.208;4.242;2022-09-09T09:20:32;18.80;99.90
19164;DHT22;9714;51.208;4.242;2022-09-09T09:23:01;18.70;99.90
19164;DHT22;9714;51.208;4.242;2022-09-09T09:25:35;18.50;99.90
19164;DHT22;9714;51.208;4.242;2022-09-09T09:28:12;18.50;99.90
19164;DHT22;9714;51.208;4.242;2022-09-09T09:30:47;18.50;99.90
19164;DHT22;9714;51.208;4.242;2022-09-09T09:33:20;18.50;99.90
19164;DHT22;9714;51.208;4.242;2022-09-09T09:35:49;18.60;99.90
19164;DHT22;9714;51.208;4.242;2022-09-09T09:38:19;18.50;99.90
19164;DHT22;9714;51.208;4.242;2022-09-09T09:40:52;18.60;99.90
19164;DHT22;9714;51.208;4.242;2022-09-09T09:43:26;18.70;99.90
19164;DHT22;9714;51.208;4.242;2022-09-09T09:45:54;18.40;99.90
19164;DHT22;9714;51.208;4.242;2022-09-09T09:48:22;18.50;99.90
19164;DHT22;9714;51.208;4.242;2022-09-09T09:50:51;18.50;99.90
19164;DHT22;9714;51.208;4.242;2022-09-09T09:53:22;18.30;99.90
19164;DHT22;9714;51.208;4.242;2022-09-09T09:55:55;18.30;99.90
19164;DHT22;9714;51.208;4.242;2022-09-09T09:58:23;18.20;99.90
19164;DHT22;9714;51.208;4.242;2022-09-09T10:00:52;18.20;99.90
19164;DHT22;9714;51.208;4.242;2022-09-09T10:03:25;18.20;99.90
19164;DHT22;9714;51.208;4.242;2022-09-09T10:05:53;18.20;99.90
19164;DHT22;9714;51.208;4.242;2022-09-09T10:08:22;18.20;99.90
19164;DHT22;9714;51.208;4.242;2022-09-09T10:11:04;18.60;99.90
19164;DHT22;9714;51.208;4.242;2022-09-09T10:13:42;19.10;99.90
19164;DHT22;9714;51.208;4.242;2022-09-09T10:16:20;19.20;99.90
19164;DHT22;9714;51.208;4.242;2022-09-09T10:19:09;19.40;99.90
19164;DHT22;9714;51.208;4.242;2022-09-09T10:21:55;19.50;99.90
19164;DHT22;9714;51.208;4.242;2022-09-09T10:24:43;19.30;99.90
19164;DHT22;9714;51.208;4.242;2022-09-09T10:27:21;19.10;99.90
19164;DHT22;9714;51.208;4.242;2022-09-09T10:30:06;19.00;99.90
19164;DHT22;9714;51.208;4.242;2022-09-09T10:32:39;19.20;99.90
19164;DHT22;9714;51.208;4.242;2022-09-09T10:35:12;19.10;99.90
19164;DHT22;9714;51.208;4.242;2022-09-09T10:37:54;19.10;99.90
19164;DHT22;9714;51.208;4.242;2022-09-09T10:40:33;19.10;99.90
19164;DHT22;9714;51.208;4.242;2022-09-09T10:43:13;19.50;99.90
19164;DHT22;9714;51.208;4.242;2022-09-09T10:45:50;19.60;99.90
19164;DHT22;9714;51.208;4.242;2022-09-09T10:48:31;19.70;99.90
19164;DHT22;9714;51.208;4.242;2022-09-09T10:51:22;19.80;99.90
19164;DHT22;9714;51.208;4.242;2022-09-09T10:54:05;19.60;99.90
19164;DHT22;9714;51.208;4.242;2022-09-09T10:56:37;19.70;99.90
19164;DHT22;9714;51.208;4.242;2022-09-09T10:59:12;19.70;99.90
19164;DHT22;9714;51.208;4.242;2022-09-09T11:01:43;20.10;99.90
19164;DHT22;9714;51.208;4.242;2022-09-09T11:04:16;20.10;99.90
19164;DHT22;9714;51.208;4.242;2022-09-09T11:06:48;20.30;99.90
19164;DHT22;9714;51.208;4.242;2022-09-09T11:09:20;20.20;99.90
19164;DHT22;9714;51.208;4.242;2022-09-09T11:11:52;20.20;99.90
19164;DHT22;9714;51.208;4.242;2022-09-09T11:14:26;20.40;99.90
19164;DHT22;9714;51.208;4.242;2022-09-09T11:16:57;20.80;99.90
19164;DHT22;9714;51.208;4.242;2022-09-09T11:19:32;20.60;99.90
19164;DHT22;9714;51.208;4.242;2022-09-09T11:22:04;20.40;99.90
19164;DHT22;9714;51.208;4.242;2022-09-09T11:24:36;20.50;99.90
19164;DHT22;9714;51.208;4.242;2022-09-09T11:27:11;20.40;99.90
19164;DHT22;9714;51.208;4.242;2022-09-09T11:30:18;20.80;99.90
19164;DHT22;9714;51.208;4.242;2022-09-09T11:35:52;21.40;99.90
19164;DHT22;9714;51.208;4.242;2022-09-09T11:38:26;22.10;99.90
19164;DHT22;9714;51.208;4.242;2022-09-09T11:40:58;21.90;99.90
19164;DHT22;9714;51.208;4.242;2022-09-09T11:43:30;21.60;99.90
19164;DHT22;9714;51.208;4.242;2022-09-09T11:46:01;21.70;99.90
19164;DHT22;9714;51.208;4.242;2022-09-09T11:48:32;21.80;99.90
19164;DHT22;9714;51.208;4.242;2022-09-09T11:51:04;22.10;99.90
19164;DHT22;9714;51.208;4.242;2022-09-09T11:53:33;22.20;99.90
19164;DHT22;9714;51.208;4.242;2022-09-09T11:56:09;22.50;99.90
19164;DHT22;9714;51.208;4.242;2022-09-09T11:58:44;22.50;99.90
19164;DHT22;9714;51.208;4.242;2022-09-09T12:01:36;22.90;99.90
19164;DHT22;9714;51.208;4.242;2022-09-09T12:04:30;22.80;99.90
19164;DHT22;9714;51.208;4.242;2022-09-09T12:07:00;22.40;99.90
19164;DHT22;9714;51.208;4.242;2022-09-09T12:09:36;21.90;99.90
19164;DHT22;9714;51.208;4.242;2022-09-09T12:12:22;21.50;99.90
19164;DHT22;9714;51.208;4.242;2022-09-09T12:14:58;21.50;99.90
19164;DHT22;9714;51.208;4.242;2022-09-09T12:17:30;22.40;99.90
19164;DHT22;9714;51.208;4.242;2022-09-09T12:20:04;22.50;99.90
19164;DHT22;9714;51.208;4.242;2022-09-09T12:25:35;22.90;99.90
19164;DHT22;9714;51.208;4.242;2022-09-09T12:28:13;22.80;99.90
19164;DHT22;9714;51.208;4.242;2022-09-09T12:30:49;22.60;99.90
19164;DHT22;9714;51.208;4.242;2022-09-09T12:33:22;22.20;99.90
19164;DHT22;9714;51.208;4.242;2022-09-09T12:35:54;21.80;99.90
19164;DHT22;9714;51.208;4.242;2022-09-09T12:38:31;21.60;99.90
19164;DHT22;9714;51.208;4.242;2022-09-09T12:40:59;21.30;99.90
19164;DHT22;9714;51.208;4.242;2022-09-09T12:43:28;21.40;99.90
19164;DHT22;9714;51.208;4.242;2022-09-09T12:45:58;21.80;99.90
19164;DHT22;9714;51.208;4.242;2022-09-09T12:48:34;23.30;99.90
19164;DHT22;9714;51.208;4.242;2022-09-09T12:51:04;25.10;99.90
19164;DHT22;9714;51.208;4.242;2022-09-09T12:53:33;25.20;99.90
19164;DHT22;9714;51.208;4.242;2022-09-09T12:56:04;26.40;99.90
19164;DHT22;9714;51.208;4.242;2022-09-09T12:58:33;26.80;99.90
19164;DHT22;9714;51.208;4.242;2022-09-09T13:01:01;26.90;99.90
19164;DHT22;9714;51.208;4.242;2022-09-09T13:03:33;25.40;99.90
19164;DHT22;9714;51.208;4.242;2022-09-09T13:06:11;24.40;99.90
19164;DHT22;9714;51.208;4.242;2022-09-09T13:08:39;23.90;99.90
19164;DHT22;9714;51.208;4.242;2022-09-09T13:11:11;23.80;99.90
19164;DHT22;9714;51.208;4.242;2022-09-09T13:13:42;23.60;99.90
19164;DHT22;9714;51.208;4.242;2022-09-09T13:16:20;23.00;99.90
19164;DHT22;9714;51.208;4.242;2022-09-09T13:18:50;22.80;99.90
19164;DHT22;9714;51.208;4.242;2022-09-09T13:21:18;23.20;99.90
19164;DHT22;9714;51.208;4.242;2022-09-09T13:23:49;23.20;99.90
19164;DHT22;9714;51.208;4.242;2022-09-09T13:26:22;23.50;99.90
19164;DHT22;9714;51.208;4.242;2022-09-09T13:28:50;24.30;99.90
19164;DHT22;9714;51.208;4.242;2022-09-09T13:31:23;25.20;99.90
19164;DHT22;9714;51.208;4.242;2022-09-09T13:33:51;24.30;99.90
19164;DHT22;9714;51.208;4.242;2022-09-09T13:36:28;23.40;99.90
19164;DHT22;9714;51.208;4.242;2022-09-09T13:38:57;23.50;99.90
19164;DHT22;9714;51.208;4.242;2022-09-09T13:41:29;23.80;99.90
19164;DHT22;9714;51.208;4.242;2022-09-09T13:43:57;23.40;99.90
19164;DHT22;9714;51.208;4.242;2022-09-09T13:46:28;23.40;99.90
19164;DHT22;9714;51.208;4.242;2022-09-09T13:48:59;23.40;99.90
19164;DHT22;9714;51.208;4.242;2022-09-09T13:51:33;23.40;99.90
19164;DHT22;9714;51.208;4.242;2022-09-09T13:54:00;23.80;99.90
19164;DHT22;9714;51.208;4.242;2022-09-09T13:56:27;23.60;99.90
19164;DHT22;9714;51.208;4.242;2022-09-09T13:58:55;24.50;99.90
19164;DHT22;9714;51.208;4.242;2022-09-09T14:01:25;25.90;99.90
19164;DHT22;9714;51.208;4.242;2022-09-09T14:03:53;25.90;99.90
19164;DHT22;9714;51.208;4.242;2022-09-09T14:06:21;25.70;99.90
19164;DHT22;9714;51.208;4.242;2022-09-09T14:08:50;24.80;99.90
19164;DHT22;9714;51.208;4.242;2022-09-09T14:11:17;24.30;99.90
19164;DHT22;9714;51.208;4.242;2022-09-09T14:13:44;24.70;99.90
19164;DHT22;9714;51.208;4.242;2022-09-09T14:16:12;25.60;99.90
19164;DHT22;9714;51.208;4.242;2022-09-09T14:18:39;25.90;99.90
19164;DHT22;9714;51.208;4.242;2022-09-09T14:21:06;25.10;99.90
19164;DHT22;9714;51.208;4.242;2022-09-09T14:23:36;24.50;99.90
19164;DHT22;9714;51.208;4.242;2022-09-09T14:26:07;24.30;99.90
19164;DHT22;9714;51.208;4.242;2022-09-09T14:28:35;24.70;99.90
19164;DHT22;9714;51.208;4.242;2022-09-09T14:31:03;25.40;99.90
19164;DHT22;9714;51.208;4.242;2022-09-09T14:33:31;26.40;99.90
19164;DHT22;9714;51.208;4.242;2022-09-09T14:36:01;26.00;99.90
19164;DHT22;9714;51.208;4.242;2022-09-09T14:38:31;25.10;99.90
19164;DHT22;9714;51.208;4.242;2022-09-09T14:41:00;24.80;99.90
19164;DHT22;9714;51.208;4.242;2022-09-09T14:43:28;24.40;99.90
19164;DHT22;9714;51.208;4.242;2022-09-09T14:46:04;24.00;99.90
19164;DHT22;9714;51.208;4.242;2022-09-09T14:48:33;23.50;99.90
19164;DHT22;9714;51.208;4.242;2022-09-09T14:51:05;23.10;99.90
19164;DHT22;9714;51.208;4.242;2022-09-09T14:53:33;22.70;99.90
19164;DHT22;9714;51.208;4.242;2022-09-09T14:56:05;22.40;99.90
19164;DHT22;9714;51.208;4.242;2022-09-09T14:58:33;22.30;99.90
19164;DHT22;9714;51.208;4.242;2022-09-09T15:01:05;22.10;99.90
19164;DHT22;9714;51.208;4.242;2022-09-09T15:03:32;21.90;99.90
19164;DHT22;9714;51.208;4.242;2022-09-09T15:06:05;22.00;99.90
19164;DHT22;9714;51.208;4.242;2022-09-09T15:08:34;22.20;99.90
19164;DHT22;9714;51.208;4.242;2022-09-09T15:11:01;22.40;99.90
19164;DHT22;9714;51.208;4.242;2022-09-09T15:13:29;22.50;99.90
19164;DHT22;9714;51.208;4.242;2022-09-09T15:16:04;22.60;99.90
19164;DHT22;9714;51.208;4.242;2022-09-09T15:18:32;22.50;99.90
19164;DHT22;9714;51.208;4.242;2022-09-09T15:20:59;22.30;99.90
19164;DHT22;9714;51.208;4.242;2022-09-09T15:23:27;22.30;99.90
19164;DHT22;9714;51.208;4.242;2022-09-09T15:25:55;22.30;99.90
19164;DHT22;9714;51.208;4.242;2022-09-09T15:28:22;21.90;99.90
19164;DHT22;9714;51.208;4.242;2022-09-09T15:30:52;21.90;99.90
19164;DHT22;9714;51.208;4.242;2022-09-09T15:33:20;21.70;99.90
19164;DHT22;9714;51.208;4.242;2022-09-09T15:35:48;21.50;99.90
19164;DHT22;9714;51.208;4.242;2022-09-09T15:38:15;21.40;99.90
19164;DHT22;9714;51.208;4.242;2022-09-09T15:40:42;21.10;99.90
19164;DHT22;9714;51.208;4.242;2022-09-09T15:43:09;21.20;99.90
19164;DHT22;9714;51.208;4.242;2022-09-09T15:45:39;21.30;99.90
19164;DHT22;9714;51.208;4.242;2022-09-09T15:48:09;21.20;99.90
19164;DHT22;9714;51.208;4.242;2022-09-09T15:50:37;21.20;99.90
19164;DHT22;9714;51.208;4.242;2022-09-09T15:53:04;21.40;99.90
19164;DHT22;9714;51.208;4.242;2022-09-09T15:55:31;21.50;99.90
19164;DHT22;9714;51.208;4.242;2022-09-09T15:57:58;22.50;99.90
19164;DHT22;9714;51.208;4.242;2022-09-09T16:00:26;22.20;99.90
19164;DHT22;9714;51.208;4.242;2022-09-09T16:02:54;22.20;99.90
19164;DHT22;9714;51.208;4.242;2022-09-09T16:05:22;22.20;99.90
19164;DHT22;9714;51.208;4.242;2022-09-09T16:07:50;21.90;99.90
19164;DHT22;9714;51.208;4.242;2022-09-09T16:10:18;22.00;99.90
19164;DHT22;9714;51.208;4.242;2022-09-09T16:12:45;21.90;99.90
19164;DHT22;9714;51.208;4.242;2022-09-09T16:15:14;21.80;99.90